sensor_id;sensor_type;location;lat;lon;timestamp;P1;durP1;ratioP1;P2;durP2;ratioP2
26435;SDS011;15351;52.408;16.826;2023-05-07T00:00:19;9.70;;;6.80;;
26435;SDS011;15351;52.408;16.826;2023-05-07T00:03:08;10.50;;;7.10;;
26435;SDS011;15351;52.408;16.826;2023-05-07T00:05:35;8.10;;;6.30;;
26435;SDS011;15351;52.408;16.826;2023-05-07T00:08:10;10.00;;;6.70;;
26435;SDS011;15351;52.408;16.826;2023-05-07T00:10:45;9.50;;;6.50;;
26435;SDS011;15351;52.408;16.826;2023-05-07T00:13:12;10.20;;;6.70;;
26435;SDS011;15351;52.408;16.826;2023-05-07T00:15:42;9.80;;;6.70;;
26435;SDS011;15351;52.408;16.826;2023-05-07T00:18:09;9.50;;;6.50;;
26435;SDS011;15351;52.408;16.826;2023-05-07T00:20:35;9.20;;;6.70;;
26435;SDS011;15351;52.408;16.826;2023-05-07T00:23:07;11.00;;;7.30;;
26435;SDS011;15351;52.408;16.826;2023-05-07T00:25:34;10.90;;;7.40;;
26435;SDS011;15351;52.408;16.826;2023-05-07T00:28:00;10.00;;;6.90;;
26435;SDS011;15351;52.408;16.826;2023-05-07T00:30:29;8.30;;;6.70;;
26435;SDS011;15351;52.408;16.826;2023-05-07T00:32:55;7.50;;;7.00;;
26435;SDS011;15351;52.408;16.826;2023-05-07T00:35:24;10.30;;;7.20;;
26435;SDS011;15351;52.408;16.826;2023-05-07T00:37:51;11.10;;;7.10;;
26435;SDS011;15351;52.408;16.826;2023-05-07T00:40:17;11.60;;;7.10;;
26435;SDS011;15351;52.408;16.826;2023-05-07T00:42:51;10.20;;;6.80;;
26435;SDS011;15351;52.408;16.826;2023-05-07T00:45:22;9.00;;;6.90;;
26435;SDS011;15351;52.408;16.826;2023-05-07T00:47:55;10.20;;;7.50;;
26435;SDS011;15351;52.408;16.826;2023-05-07T00:50:26;9.50;;;7.00;;
26435;SDS011;15351;52.408;16.826;2023-05-07T00:52:55;7.70;;;6.60;;
26435;SDS011;15351;52.408;16.826;2023-05-07T00:55:24;10.60;;;6.80;;
26435;SDS011;15351;52.408;16.826;2023-05-07T00:57:56;9.60;;;6.90;;
26435;SDS011;15351;52.408;16.826;2023-05-07T01:00:32;11.10;;;7.20;;
26435;SDS011;15351;52.408;16.826;2023-05-07T01:03:00;10.40;;;7.10;;
26435;SDS011;15351;52.408;16.826;2023-05-07T01:05:29;8.80;;;7.40;;
26435;SDS011;15351;52.408;16.826;2023-05-07T01:08:02;9.40;;;7.40;;
26435;SDS011;15351;52.408;16.826;2023-05-07T01:10:31;9.80;;;7.70;;
26435;SDS011;15351;52.408;16.826;2023-05-07T01:13:03;12.30;;;7.50;;
26435;SDS011;15351;52.408;16.826;2023-05-07T01:15:31;13.30;;;7.50;;
26435;SDS011;15351;52.408;16.826;2023-05-07T01:17:57;10.40;;;7.60;;
26435;SDS011;15351;52.408;16.826;2023-05-07T01:20:31;9.90;;;7.30;;
26435;SDS011;15351;52.408;16.826;2023-05-07T01:22:58;10.20;;;7.80;;
26435;SDS011;15351;52.408;16.826;2023-05-07T01:25:34;10.70;;;7.40;;
26435;SDS011;15351;52.408;16.826;2023-05-07T01:28:04;10.50;;;7.20;;
26435;SDS011;15351;52.408;16.826;2023-05-07T01:30:39;8.60;;;7.10;;
26435;SDS011;15351;52.408;16.826;2023-05-07T01:33:14;9.60;;;7.70;;
26435;SDS011;15351;52.408;16.826;2023-05-07T01:35:45;11.50;;;8.80;;
26435;SDS011;15351;52.408;16.826;2023-05-07T01:38:36;12.40;;;7.70;;
26435;SDS011;15351;52.408;16.826;2023-05-07T01:41:04;10.20;;;7.70;;
26435;SDS011;15351;52.408;16.826;2023-05-07T01:43:30;10.20;;;7.50;;
26435;SDS011;15351;52.408;16.826;2023-05-07T01:46:00;9.90;;;7.30;;
26435;SDS011;15351;52.408;16.826;2023-05-07T01:48:40;11.00;;;7.60;;
26435;SDS011;15351;52.408;16.826;2023-05-07T01:51:07;10.80;;;7.30;;
26435;SDS011;15351;52.408;16.826;2023-05-07T01:53:44;9.40;;;7.10;;
26435;SDS011;15351;52.408;16.826;2023-05-07T01:56:13;10.80;;;7.70;;
26435;SDS011;15351;52.408;16.826;2023-05-07T01:58:40;10.10;;;7.60;;
26435;SDS011;15351;52.408;16.826;2023-05-07T02:01:09;12.60;;;7.80;;
26435;SDS011;15351;52.408;16.826;2023-05-07T02:03:41;9.60;;;7.30;;
26435;SDS011;15351;52.408;16.826;2023-05-07T02:06:13;10.70;;;7.70;;
26435;SDS011;15351;52.408;16.826;2023-05-07T02:09:07;9.10;;;7.20;;
26435;SDS011;15351;52.408;16.826;2023-05-07T02:11:47;10.10;;;7.90;;
26435;SDS011;15351;52.408;16.826;2023-05-07T02:14:14;11.20;;;7.50;;
26435;SDS011;15351;52.408;16.826;2023-05-07T02:16:44;12.70;;;7.50;;
26435;SDS011;15351;52.408;16.826;2023-05-07T02:19:15;9.30;;;7.30;;
26435;SDS011;15351;52.408;16.826;2023-05-07T02:22:02;9.60;;;7.50;;
26435;SDS011;15351;52.408;16.826;2023-05-07T02:24:31;11.10;;;7.90;;
26435;SDS011;15351;52.408;16.826;2023-05-07T02:27:18;12.40;;;7.60;;
26435;SDS011;15351;52.408;16.826;2023-05-07T02:29:46;9.40;;;7.20;;
26435;SDS011;15351;52.408;16.826;2023-05-07T02:32:13;10.70;;;8.00;;
26435;SDS011;15351;52.408;16.826;2023-05-07T02:34:39;11.00;;;8.40;;
26435;SDS011;15351;52.408;16.826;2023-05-07T02:37:14;11.80;;;8.30;;
26435;SDS011;15351;52.408;16.826;2023-05-07T02:39:40;12.60;;;8.20;;
26435;SDS011;15351;52.408;16.826;2023-05-07T02:42:18;12.30;;;8.20;;
26435;SDS011;15351;52.408;16.826;2023-05-07T02:44:48;11.30;;;8.00;;
26435;SDS011;15351;52.408;16.826;2023-05-07T02:47:22;11.90;;;8.70;;
26435;SDS011;15351;52.408;16.826;2023-05-07T02:49:48;12.80;;;8.80;;
26435;SDS011;15351;52.408;16.826;2023-05-07T02:52:15;12.70;;;8.30;;
26435;SDS011;15351;52.408;16.826;2023-05-07T02:54:41;10.20;;;7.80;;
26435;SDS011;15351;52.408;16.826;2023-05-07T02:57:07;12.20;;;8.70;;
26435;SDS011;15351;52.408;16.826;2023-05-07T02:59:46;13.30;;;9.00;;
26435;SDS011;15351;52.408;16.826;2023-05-07T03:02:32;13.30;;;8.40;;
26435;SDS011;15351;52.408;16.826;2023-05-07T03:05:09;11.70;;;8.10;;
26435;SDS011;15351;52.408;16.826;2023-05-07T03:07:38;11.20;;;8.60;;
26435;SDS011;15351;52.408;16.826;2023-05-07T03:10:14;14.40;;;9.20;;
26435;SDS011;15351;52.408;16.826;2023-05-07T03:12:43;11.60;;;9.00;;
26435;SDS011;15351;52.408;16.826;2023-05-07T03:15:18;12.00;;;8.70;;
26435;SDS011;15351;52.408;16.826;2023-05-07T03:17:45;11.00;;;8.60;;
26435;SDS011;15351;52.408;16.826;2023-05-07T03:20:11;11.10;;;8.10;;
26435;SDS011;15351;52.408;16.826;2023-05-07T03:22:40;11.20;;;8.20;;
26435;SDS011;15351;52.408;16.826;2023-05-07T03:25:06;14.10;;;9.30;;
26435;SDS011;15351;52.408;16.826;2023-05-07T03:27:35;11.40;;;8.40;;
26435;SDS011;15351;52.408;16.826;2023-05-07T03:30:03;13.00;;;8.30;;
26435;SDS011;15351;52.408;16.826;2023-05-07T03:32:34;10.20;;;8.30;;
26435;SDS011;15351;52.408;16.826;2023-05-07T03:35:04;11.90;;;8.90;;
26435;SDS011;15351;52.408;16.826;2023-05-07T03:37:31;12.50;;;8.60;;
26435;SDS011;15351;52.408;16.826;2023-05-07T03:39:59;11.40;;;8.40;;
26435;SDS011;15351;52.408;16.826;2023-05-07T03:42:26;11.30;;;8.20;;
26435;SDS011;15351;52.408;16.826;2023-05-07T03:44:58;10.30;;;8.10;;
26435;SDS011;15351;52.408;16.826;2023-05-07T03:47:29;12.90;;;9.10;;
26435;SDS011;15351;52.408;16.826;2023-05-07T03:49:57;12.30;;;8.20;;
26435;SDS011;15351;52.408;16.826;2023-05-07T03:52:26;12.30;;;7.90;;
26435;SDS011;15351;52.408;16.826;2023-05-07T03:55:01;9.10;;;7.90;;
26435;SDS011;15351;52.408;16.826;2023-05-07T03:57:29;10.70;;;8.20;;
26435;SDS011;15351;52.408;16.826;2023-05-07T04:00:17;13.60;;;8.90;;
26435;SDS011;15351;52.408;16.826;2023-05-07T04:02:49;11.60;;;8.00;;
26435;SDS011;15351;52.408;16.826;2023-05-07T04:05:23;9.50;;;7.60;;
26435;SDS011;15351;52.408;16.826;2023-05-07T04:07:52;9.90;;;7.60;;
26435;SDS011;15351;52.408;16.826;2023-05-07T04:10:31;11.60;;;8.40;;
26435;SDS011;15351;52.408;16.826;2023-05-07T04:12:59;13.00;;;8.00;;
26435;SDS011;15351;52.408;16.826;2023-05-07T04:15:26;10.20;;;8.00;;
26435;SDS011;15351;52.408;16.826;2023-05-07T04:17:54;9.10;;;7.30;;
26435;SDS011;15351;52.408;16.826;2023-05-07T04:20:21;11.10;;;8.10;;
26435;SDS011;15351;52.408;16.826;2023-05-07T04:22:53;10.60;;;8.20;;
26435;SDS011;15351;52.408;16.826;2023-05-07T04:25:20;13.30;;;8.40;;
26435;SDS011;15351;52.408;16.826;2023-05-07T04:28:01;11.90;;;7.60;;
26435;SDS011;15351;52.408;16.826;2023-05-07T04:30:32;10.30;;;7.50;;
26435;SDS011;15351;52.408;16.826;2023-05-07T04:32:59;11.10;;;8.20;;
26435;SDS011;15351;52.408;16.826;2023-05-07T04:35:27;9.90;;;8.30;;
26435;SDS011;15351;52.408;16.826;2023-05-07T04:37:55;11.40;;;8.10;;
26435;SDS011;15351;52.408;16.826;2023-05-07T04:40:24;11.60;;;7.50;;
26435;SDS011;15351;52.408;16.826;2023-05-07T04:43:00;11.00;;;7.80;;
26435;SDS011;15351;52.408;16.826;2023-05-07T04:45:28;12.00;;;8.30;;
26435;SDS011;15351;52.408;16.826;2023-05-07T04:48:15;12.50;;;8.50;;
26435;SDS011;15351;52.408;16.826;2023-05-07T04:50:42;12.00;;;8.10;;
26435;SDS011;15351;52.408;16.826;2023-05-07T04:53:12;10.30;;;7.70;;
26435;SDS011;15351;52.408;16.826;2023-05-07T04:55:38;9.90;;;7.70;;
26435;SDS011;15351;52.408;16.826;2023-05-07T04:58:40;11.60;;;8.90;;
26435;SDS011;15351;52.408;16.826;2023-05-07T05:01:06;12.30;;;8.60;;
26435;SDS011;15351;52.408;16.826;2023-05-07T05:03:33;11.90;;;8.60;;
26435;SDS011;15351;52.408;16.826;2023-05-07T05:05:59;11.30;;;8.30;;
26435;SDS011;15351;52.408;16.826;2023-05-07T05:08:27;12.20;;;8.80;;
26435;SDS011;15351;52.408;16.826;2023-05-07T05:10:53;10.60;;;8.80;;
26435;SDS011;15351;52.408;16.826;2023-05-07T05:13:20;13.10;;;9.10;;
26435;SDS011;15351;52.408;16.826;2023-05-07T05:15:47;13.70;;;8.60;;
26435;SDS011;15351;52.408;16.826;2023-05-07T05:18:32;8.80;;;7.10;;
26435;SDS011;15351;52.408;16.826;2023-05-07T05:21:02;9.60;;;7.80;;
26435;SDS011;15351;52.408;16.826;2023-05-07T05:23:33;7.60;;;6.80;;
26435;SDS011;15351;52.408;16.826;2023-05-07T05:26:10;7.70;;;6.50;;
26435;SDS011;15351;52.408;16.826;2023-05-07T05:28:37;8.10;;;6.00;;
26435;SDS011;15351;52.408;16.826;2023-05-07T05:31:04;8.30;;;5.70;;
26435;SDS011;15351;52.408;16.826;2023-05-07T05:33:35;7.80;;;5.70;;
26435;SDS011;15351;52.408;16.826;2023-05-07T05:36:04;6.40;;;5.50;;
26435;SDS011;15351;52.408;16.826;2023-05-07T05:38:37;6.90;;;5.60;;
26435;SDS011;15351;52.408;16.826;2023-05-07T05:41:04;9.30;;;5.80;;
26435;SDS011;15351;52.408;16.826;2023-05-07T05:43:31;8.10;;;5.20;;
26435;SDS011;15351;52.408;16.826;2023-05-07T05:45:57;8.20;;;5.40;;
26435;SDS011;15351;52.408;16.826;2023-05-07T05:48:28;7.40;;;5.30;;
26435;SDS011;15351;52.408;16.826;2023-05-07T05:50:55;7.10;;;5.60;;
26435;SDS011;15351;52.408;16.826;2023-05-07T05:53:24;7.50;;;5.50;;
26435;SDS011;15351;52.408;16.826;2023-05-07T05:55:57;7.70;;;5.50;;
26435;SDS011;15351;52.408;16.826;2023-05-07T05:58:30;7.80;;;5.10;;
26435;SDS011;15351;52.408;16.826;2023-05-07T06:01:00;6.10;;;4.90;;
26435;SDS011;15351;52.408;16.826;2023-05-07T06:03:39;6.30;;;4.70;;
26435;SDS011;15351;52.408;16.826;2023-05-07T06:06:09;6.40;;;4.70;;
26435;SDS011;15351;52.408;16.826;2023-05-07T06:08:38;6.60;;;4.80;;
26435;SDS011;15351;52.408;16.826;2023-05-07T06:11:26;7.20;;;4.40;;
26435;SDS011;15351;52.408;16.826;2023-05-07T06:13:52;5.20;;;4.20;;
26435;SDS011;15351;52.408;16.826;2023-05-07T06:16:25;5.80;;;4.30;;
26435;SDS011;15351;52.408;16.826;2023-05-07T06:19:06;5.70;;;4.30;;
26435;SDS011;15351;52.408;16.826;2023-05-07T06:21:35;6.40;;;4.20;;
26435;SDS011;15351;52.408;16.826;2023-05-07T06:24:07;6.10;;;4.30;;
26435;SDS011;15351;52.408;16.826;2023-05-07T06:30:07;4.60;;;3.50;;
26435;SDS011;15351;52.408;16.826;2023-05-07T06:32:35;4.30;;;3.30;;
26435;SDS011;15351;52.408;16.826;2023-05-07T06:35:03;5.10;;;3.30;;
26435;SDS011;15351;52.408;16.826;2023-05-07T06:37:29;5.10;;;3.40;;
26435;SDS011;15351;52.408;16.826;2023-05-07T06:42:48;5.20;;;3.30;;
26435;SDS011;15351;52.408;16.826;2023-05-07T06:49:24;4.90;;;3.20;;
26435;SDS011;15351;52.408;16.826;2023-05-07T06:52:48;4.20;;;3.30;;
26435;SDS011;15351;52.408;16.826;2023-05-07T06:55:11;6.30;;;3.60;;
26435;SDS011;15351;52.408;16.826;2023-05-07T06:58:01;5.60;;;3.40;;
26435;SDS011;15351;52.408;16.826;2023-05-07T07:00:32;3.90;;;3.00;;
26435;SDS011;15351;52.408;16.826;2023-05-07T07:03:06;4.20;;;3.20;;
26435;SDS011;15351;52.408;16.826;2023-05-07T07:05:36;4.30;;;2.80;;
26435;SDS011;15351;52.408;16.826;2023-05-07T07:08:22;4.30;;;2.70;;
26435;SDS011;15351;52.408;16.826;2023-05-07T07:10:49;4.20;;;2.50;;
26435;SDS011;15351;52.408;16.826;2023-05-07T07:13:16;3.70;;;2.40;;
26435;SDS011;15351;52.408;16.826;2023-05-07T07:15:45;3.00;;;2.20;;
26435;SDS011;15351;52.408;16.826;2023-05-07T07:18:11;3.50;;;2.10;;
26435;SDS011;15351;52.408;16.826;2023-05-07T07:20:38;3.60;;;2.30;;
26435;SDS011;15351;52.408;16.826;2023-05-07T07:23:06;2.70;;;2.00;;
26435;SDS011;15351;52.408;16.826;2023-05-07T07:25:40;2.80;;;2.20;;
26435;SDS011;15351;52.408;16.826;2023-05-07T07:28:07;4.70;;;2.10;;
26435;SDS011;15351;52.408;16.826;2023-05-07T07:30:34;3.30;;;2.10;;
26435;SDS011;15351;52.408;16.826;2023-05-07T07:33:01;2.50;;;2.00;;
26435;SDS011;15351;52.408;16.826;2023-05-07T07:35:56;2.50;;;1.70;;
26435;SDS011;15351;52.408;16.826;2023-05-07T07:38:22;1.90;;;1.70;;
26435;SDS011;15351;52.408;16.826;2023-05-07T07:40:55;3.30;;;1.60;;
26435;SDS011;15351;52.408;16.826;2023-05-07T07:43:22;2.50;;;1.70;;
26435;SDS011;15351;52.408;16.826;2023-05-07T07:45:48;2.60;;;1.90;;
26435;SDS011;15351;52.408;16.826;2023-05-07T07:48:15;2.70;;;1.60;;
26435;SDS011;15351;52.408;16.826;2023-05-07T07:50:41;2.10;;;1.60;;
26435;SDS011;15351;52.408;16.826;2023-05-07T07:53:11;2.30;;;1.70;;
26435;SDS011;15351;52.408;16.826;2023-05-07T07:55:48;2.90;;;1.90;;
26435;SDS011;15351;52.408;16.826;2023-05-07T07:58:19;3.70;;;2.00;;
26435;SDS011;15351;52.408;16.826;2023-05-07T08:00:46;4.00;;;1.60;;
26435;SDS011;15351;52.408;16.826;2023-05-07T08:03:13;4.40;;;1.90;;
26435;SDS011;15351;52.408;16.826;2023-05-07T08:05:54;2.50;;;1.70;;
26435;SDS011;15351;52.408;16.826;2023-05-07T08:08:28;3.50;;;1.70;;
26435;SDS011;15351;52.408;16.826;2023-05-07T08:11:15;3.40;;;1.80;;
26435;SDS011;15351;52.408;16.826;2023-05-07T08:16:26;2.50;;;1.90;;
26435;SDS011;15351;52.408;16.826;2023-05-07T08:18:54;4.50;;;1.90;;
26435;SDS011;15351;52.408;16.826;2023-05-07T08:21:20;4.00;;;1.90;;
26435;SDS011;15351;52.408;16.826;2023-05-07T08:23:52;2.40;;;1.90;;
26435;SDS011;15351;52.408;16.826;2023-05-07T08:26:18;3.50;;;1.90;;
26435;SDS011;15351;52.408;16.826;2023-05-07T08:28:45;4.50;;;2.40;;
26435;SDS011;15351;52.408;16.826;2023-05-07T08:31:11;4.10;;;2.10;;
26435;SDS011;15351;52.408;16.826;2023-05-07T08:33:44;2.40;;;1.90;;
26435;SDS011;15351;52.408;16.826;2023-05-07T08:36:28;4.70;;;2.10;;
26435;SDS011;15351;52.408;16.826;2023-05-07T08:39:07;3.90;;;2.30;;
26435;SDS011;15351;52.408;16.826;2023-05-07T08:41:35;3.90;;;2.70;;
26435;SDS011;15351;52.408;16.826;2023-05-07T08:44:02;3.90;;;2.40;;
26435;SDS011;15351;52.408;16.826;2023-05-07T08:46:31;3.20;;;2.30;;
26435;SDS011;15351;52.408;16.826;2023-05-07T08:49:08;2.90;;;2.00;;
26435;SDS011;15351;52.408;16.826;2023-05-07T08:51:57;5.10;;;2.20;;
26435;SDS011;15351;52.408;16.826;2023-05-07T08:54:25;3.80;;;2.20;;
26435;SDS011;15351;52.408;16.826;2023-05-07T08:56:55;3.60;;;2.30;;
26435;SDS011;15351;52.408;16.826;2023-05-07T08:59:22;3.40;;;2.50;;
26435;SDS011;15351;52.408;16.826;2023-05-07T09:05:03;3.30;;;2.20;;
26435;SDS011;15351;52.408;16.826;2023-05-07T09:11:31;4.40;;;2.40;;
26435;SDS011;15351;52.408;16.826;2023-05-07T09:13:59;5.30;;;2.80;;
26435;SDS011;15351;52.408;16.826;2023-05-07T09:16:29;4.50;;;2.60;;
26435;SDS011;15351;52.408;16.826;2023-05-07T09:18:58;3.00;;;2.20;;
26435;SDS011;15351;52.408;16.826;2023-05-07T09:21:28;3.00;;;2.30;;
26435;SDS011;15351;52.408;16.826;2023-05-07T09:23:55;2.40;;;2.10;;
26435;SDS011;15351;52.408;16.826;2023-05-07T09:26:26;2.70;;;2.30;;
26435;SDS011;15351;52.408;16.826;2023-05-07T09:29:09;3.00;;;2.40;;
26435;SDS011;15351;52.408;16.826;2023-05-07T09:31:37;4.00;;;2.30;;
26435;SDS011;15351;52.408;16.826;2023-05-07T09:34:05;4.30;;;2.40;;
26435;SDS011;15351;52.408;16.826;2023-05-07T09:42:22;4.70;;;2.20;;
26435;SDS011;15351;52.408;16.826;2023-05-07T09:51:47;3.70;;;2.30;;
26435;SDS011;15351;52.408;16.826;2023-05-07T09:54:49;2.40;;;2.20;;
26435;SDS011;15351;52.408;16.826;2023-05-07T09:57:24;3.00;;;2.40;;
26435;SDS011;15351;52.408;16.826;2023-05-07T10:00:43;5.60;;;2.10;;
26435;SDS011;15351;52.408;16.826;2023-05-07T10:03:28;3.70;;;2.40;;
26435;SDS011;15351;52.408;16.826;2023-05-07T10:06:30;3.50;;;2.20;;
26435;SDS011;15351;52.408;16.826;2023-05-07T10:09:23;5.30;;;2.30;;
26435;SDS011;15351;52.408;16.826;2023-05-07T10:12:38;3.20;;;2.40;;
26435;SDS011;15351;52.408;16.826;2023-05-07T10:15:21;2.90;;;2.20;;
26435;SDS011;15351;52.408;16.826;2023-05-07T10:18:06;2.90;;;2.30;;
26435;SDS011;15351;52.408;16.826;2023-05-07T10:20:51;5.10;;;2.60;;
26435;SDS011;15351;52.408;16.826;2023-05-07T10:23:43;2.40;;;2.00;;
26435;SDS011;15351;52.408;16.826;2023-05-07T10:26:44;2.50;;;2.20;;
26435;SDS011;15351;52.408;16.826;2023-05-07T10:32:21;2.80;;;2.30;;
26435;SDS011;15351;52.408;16.826;2023-05-07T10:36:08;3.60;;;2.30;;
26435;SDS011;15351;52.408;16.826;2023-05-07T10:38:36;3.20;;;2.00;;
26435;SDS011;15351;52.408;16.826;2023-05-07T10:41:44;3.10;;;2.20;;
26435;SDS011;15351;52.408;16.826;2023-05-07T10:45:13;2.50;;;2.00;;
26435;SDS011;15351;52.408;16.826;2023-05-07T10:48:27;2.10;;;1.80;;
26435;SDS011;15351;52.408;16.826;2023-05-07T10:57:48;2.40;;;2.00;;
26435;SDS011;15351;52.408;16.826;2023-05-07T11:01:53;2.20;;;1.70;;
26435;SDS011;15351;52.408;16.826;2023-05-07T11:15:08;2.60;;;1.80;;
26435;SDS011;15351;52.408;16.826;2023-05-07T11:18:03;2.60;;;1.80;;
26435;SDS011;15351;52.408;16.826;2023-05-07T11:20:46;2.20;;;1.70;;
26435;SDS011;15351;52.408;16.826;2023-05-07T11:29:36;3.30;;;2.00;;
26435;SDS011;15351;52.408;16.826;2023-05-07T11:32:15;3.70;;;2.00;;
26435;SDS011;15351;52.408;16.826;2023-05-07T11:35:12;2.40;;;1.80;;
26435;SDS011;15351;52.408;16.826;2023-05-07T11:38:04;2.30;;;1.70;;
26435;SDS011;15351;52.408;16.826;2023-05-07T11:40:54;2.90;;;1.80;;
26435;SDS011;15351;52.408;16.826;2023-05-07T11:43:27;2.90;;;1.60;;
26435;SDS011;15351;52.408;16.826;2023-05-07T11:45:53;2.30;;;1.70;;
26435;SDS011;15351;52.408;16.826;2023-05-07T11:48:21;3.40;;;2.00;;
26435;SDS011;15351;52.408;16.826;2023-05-07T11:50:59;2.90;;;2.00;;
26435;SDS011;15351;52.408;16.826;2023-05-07T11:53:37;2.70;;;1.80;;
26435;SDS011;15351;52.408;16.826;2023-05-07T11:56:29;2.10;;;1.70;;
26435;SDS011;15351;52.408;16.826;2023-05-07T11:59:02;2.30;;;1.70;;
26435;SDS011;15351;52.408;16.826;2023-05-07T12:01:28;2.10;;;1.70;;
26435;SDS011;15351;52.408;16.826;2023-05-07T12:04:18;2.60;;;1.80;;
26435;SDS011;15351;52.408;16.826;2023-05-07T12:06:53;4.40;;;1.90;;
26435;SDS011;15351;52.408;16.826;2023-05-07T12:09:33;2.80;;;1.80;;
26435;SDS011;15351;52.408;16.826;2023-05-07T12:12:59;3.00;;;1.80;;
26435;SDS011;15351;52.408;16.826;2023-05-07T12:16:16;3.70;;;1.80;;
26435;SDS011;15351;52.408;16.826;2023-05-07T12:18:44;4.00;;;1.90;;
26435;SDS011;15351;52.408;16.826;2023-05-07T12:21:14;3.40;;;1.90;;
26435;SDS011;15351;52.408;16.826;2023-05-07T12:23:50;1.90;;;1.70;;
26435;SDS011;15351;52.408;16.826;2023-05-07T12:26:22;3.00;;;1.70;;
26435;SDS011;15351;52.408;16.826;2023-05-07T12:28:51;2.60;;;1.70;;
26435;SDS011;15351;52.408;16.826;2023-05-07T12:34:02;3.40;;;1.80;;
26435;SDS011;15351;52.408;16.826;2023-05-07T12:36:37;3.30;;;1.90;;
26435;SDS011;15351;52.408;16.826;2023-05-07T12:42:19;2.40;;;1.80;;
26435;SDS011;15351;52.408;16.826;2023-05-07T12:44:53;3.00;;;1.90;;
26435;SDS011;15351;52.408;16.826;2023-05-07T12:47:22;3.60;;;2.00;;
26435;SDS011;15351;52.408;16.826;2023-05-07T12:49:49;2.70;;;1.70;;
26435;SDS011;15351;52.408;16.826;2023-05-07T12:52:19;2.50;;;2.00;;
26435;SDS011;15351;52.408;16.826;2023-05-07T12:55:09;2.50;;;2.00;;
26435;SDS011;15351;52.408;16.826;2023-05-07T12:57:45;3.30;;;2.00;;
26435;SDS011;15351;52.408;16.826;2023-05-07T13:00:38;3.10;;;2.10;;
26435;SDS011;15351;52.408;16.826;2023-05-07T13:06:12;4.70;;;2.30;;
26435;SDS011;15351;52.408;16.826;2023-05-07T13:08:46;3.30;;;2.20;;
26435;SDS011;15351;52.408;16.826;2023-05-07T13:11:18;2.90;;;2.10;;
26435;SDS011;15351;52.408;16.826;2023-05-07T13:13:52;3.00;;;2.20;;
26435;SDS011;15351;52.408;16.826;2023-05-07T13:16:28;3.30;;;2.00;;
26435;SDS011;15351;52.408;16.826;2023-05-07T13:19:02;2.90;;;2.10;;
26435;SDS011;15351;52.408;16.826;2023-05-07T13:21:32;3.40;;;1.80;;
26435;SDS011;15351;52.408;16.826;2023-05-07T13:24:00;3.20;;;2.10;;
26435;SDS011;15351;52.408;16.826;2023-05-07T13:26:39;3.00;;;2.20;;
26435;SDS011;15351;52.408;16.826;2023-05-07T13:29:35;2.70;;;2.00;;
26435;SDS011;15351;52.408;16.826;2023-05-07T13:32:38;4.10;;;2.20;;
26435;SDS011;15351;52.408;16.826;2023-05-07T13:35:16;3.20;;;2.10;;
26435;SDS011;15351;52.408;16.826;2023-05-07T13:37:45;3.00;;;2.20;;
26435;SDS011;15351;52.408;16.826;2023-05-07T13:40:12;3.40;;;2.20;;
26435;SDS011;15351;52.408;16.826;2023-05-07T13:42:50;4.80;;;2.30;;
26435;SDS011;15351;52.408;16.826;2023-05-07T13:45:19;8.90;;;2.40;;
26435;SDS011;15351;52.408;16.826;2023-05-07T13:47:47;3.90;;;2.30;;
26435;SDS011;15351;52.408;16.826;2023-05-07T13:50:15;5.70;;;2.20;;
26435;SDS011;15351;52.408;16.826;2023-05-07T13:52:44;3.60;;;2.40;;
26435;SDS011;15351;52.408;16.826;2023-05-07T13:55:17;5.80;;;2.20;;
26435;SDS011;15351;52.408;16.826;2023-05-07T13:57:45;5.00;;;2.50;;
26435;SDS011;15351;52.408;16.826;2023-05-07T14:00:26;4.80;;;2.60;;
26435;SDS011;15351;52.408;16.826;2023-05-07T14:03:00;3.90;;;2.60;;
26435;SDS011;15351;52.408;16.826;2023-05-07T14:06:08;4.10;;;2.40;;
26435;SDS011;15351;52.408;16.826;2023-05-07T14:08:39;5.70;;;2.60;;
26435;SDS011;15351;52.408;16.826;2023-05-07T14:11:25;3.20;;;2.40;;
26435;SDS011;15351;52.408;16.826;2023-05-07T14:13:56;4.50;;;2.30;;
26435;SDS011;15351;52.408;16.826;2023-05-07T14:16:28;3.90;;;2.30;;
26435;SDS011;15351;52.408;16.826;2023-05-07T14:19:09;4.40;;;2.30;;
26435;SDS011;15351;52.408;16.826;2023-05-07T14:21:36;4.00;;;2.40;;
26435;SDS011;15351;52.408;16.826;2023-05-07T14:24:11;6.60;;;2.60;;
26435;SDS011;15351;52.408;16.826;2023-05-07T14:26:37;3.40;;;2.50;;
26435;SDS011;15351;52.408;16.826;2023-05-07T14:29:06;4.20;;;2.60;;
26435;SDS011;15351;52.408;16.826;2023-05-07T14:31:36;3.10;;;2.40;;
26435;SDS011;15351;52.408;16.826;2023-05-07T14:34:02;3.40;;;2.50;;
26435;SDS011;15351;52.408;16.826;2023-05-07T14:36:34;3.70;;;2.30;;
26435;SDS011;15351;52.408;16.826;2023-05-07T14:39:15;3.40;;;2.20;;
26435;SDS011;15351;52.408;16.826;2023-05-07T14:41:44;2.60;;;2.30;;
26435;SDS011;15351;52.408;16.826;2023-05-07T14:44:11;3.00;;;2.30;;
26435;SDS011;15351;52.408;16.826;2023-05-07T14:46:38;4.00;;;2.30;;
26435;SDS011;15351;52.408;16.826;2023-05-07T14:49:08;3.70;;;2.20;;
26435;SDS011;15351;52.408;16.826;2023-05-07T14:51:46;2.70;;;2.10;;
26435;SDS011;15351;52.408;16.826;2023-05-07T14:54:26;3.00;;;2.10;;
26435;SDS011;15351;52.408;16.826;2023-05-07T14:57:25;4.30;;;2.10;;
26435;SDS011;15351;52.408;16.826;2023-05-07T15:00:01;3.60;;;2.40;;
26435;SDS011;15351;52.408;16.826;2023-05-07T15:02:32;3.90;;;2.40;;
26435;SDS011;15351;52.408;16.826;2023-05-07T15:05:01;3.70;;;1.90;;
26435;SDS011;15351;52.408;16.826;2023-05-07T15:07:36;3.30;;;2.20;;
26435;SDS011;15351;52.408;16.826;2023-05-07T15:10:14;3.60;;;2.30;;
26435;SDS011;15351;52.408;16.826;2023-05-07T15:12:48;4.60;;;2.80;;
26435;SDS011;15351;52.408;16.826;2023-05-07T15:15:16;3.90;;;2.70;;
26435;SDS011;15351;52.408;16.826;2023-05-07T15:17:54;4.40;;;2.60;;
26435;SDS011;15351;52.408;16.826;2023-05-07T15:20:32;4.20;;;2.60;;
26435;SDS011;15351;52.408;16.826;2023-05-07T15:23:17;4.00;;;2.50;;
26435;SDS011;15351;52.408;16.826;2023-05-07T15:25:53;5.50;;;2.60;;
26435;SDS011;15351;52.408;16.826;2023-05-07T15:29:02;4.10;;;2.50;;
26435;SDS011;15351;52.408;16.826;2023-05-07T15:31:40;3.80;;;2.80;;
26435;SDS011;15351;52.408;16.826;2023-05-07T15:34:07;4.50;;;2.50;;
26435;SDS011;15351;52.408;16.826;2023-05-07T15:37:13;3.10;;;2.40;;
26435;SDS011;15351;52.408;16.826;2023-05-07T15:39:57;2.70;;;2.20;;
26435;SDS011;15351;52.408;16.826;2023-05-07T15:42:24;4.50;;;2.50;;
26435;SDS011;15351;52.408;16.826;2023-05-07T15:44:56;2.80;;;2.10;;
26435;SDS011;15351;52.408;16.826;2023-05-07T15:47:49;4.00;;;2.20;;
26435;SDS011;15351;52.408;16.826;2023-05-07T15:50:29;3.70;;;2.50;;
26435;SDS011;15351;52.408;16.826;2023-05-07T15:52:59;3.80;;;2.70;;
26435;SDS011;15351;52.408;16.826;2023-05-07T15:56:08;4.90;;;2.80;;
26435;SDS011;15351;52.408;16.826;2023-05-07T15:58:35;5.00;;;3.00;;
26435;SDS011;15351;52.408;16.826;2023-05-07T16:01:13;5.60;;;2.80;;
26435;SDS011;15351;52.408;16.826;2023-05-07T16:03:40;4.40;;;3.10;;
26435;SDS011;15351;52.408;16.826;2023-05-07T16:06:25;4.00;;;2.80;;
26435;SDS011;15351;52.408;16.826;2023-05-07T16:08:55;3.70;;;2.40;;
26435;SDS011;15351;52.408;16.826;2023-05-07T16:11:24;4.10;;;2.40;;
26435;SDS011;15351;52.408;16.826;2023-05-07T16:13:56;4.50;;;2.80;;
26435;SDS011;15351;52.408;16.826;2023-05-07T16:16:22;5.10;;;2.90;;
26435;SDS011;15351;52.408;16.826;2023-05-07T16:18:52;3.90;;;2.80;;
26435;SDS011;15351;52.408;16.826;2023-05-07T16:21:18;3.40;;;2.60;;
26435;SDS011;15351;52.408;16.826;2023-05-07T16:23:45;4.10;;;2.80;;